»·PEaware :: DAL1855 KDEN-KTUS

DAL1855 :: KDEN-KTUS

FLIGHT INFORMATION

Flight Status: Arrived
Operator:
Delta Air Lines
More flights by this operator :: More flights under this callsign
Pilot: Michael F. (17294)
Aircraft: BOEING 737-800
(B738)
More flights by this aircraft type
Origin: KDEN Denver Intl
United States
Destination: KTUS Tucson Intl
United States
More flights between these airports :: More routes between these airports
Route: +SPAZZ3 ZAPAA ALS ONM SSO ZONNA1
File this flight plan on PilotEdge
Remarks:
Altitude:
(Current/Filed)
38,000ft
Speed:
(Current/Filed)
461kts
Departed: 21-Apr-18 01:32 PM
Arrived: 21-Apr-18 03:03 PM
Distance/Time
Traveled:
555nm/1:31
Distance/Time
To Go:
Arrived

Flight Plot

Page will automatically refresh every two minutes.

Flight plan parsing failed; only flown route is shown


Map Options




Map Legend


Flown Route
Filed Route
Departure Airport
Arrival Airport
Navaid (VOR, NDB)
Fix

Horizontal Profiles

Position Reports

Time Latitude Longitude Heading Altitude Ground
Speed
21-Apr-18 13:01 39.853374 -104.672093 0 5438ft 0kts
21-Apr-18 13:02 39.853374 -104.672093 0 5439ft 0kts
21-Apr-18 13:03 39.853374 -104.672093 0 5439ft 0kts
21-Apr-18 13:04 39.853374 -104.672093 0 5439ft 0kts
21-Apr-18 13:05 39.853374 -104.672093 0 5439ft 0kts
21-Apr-18 13:06 39.853374 -104.672093 0 5439ft 0kts
21-Apr-18 13:07 39.853374 -104.672093 0 5439ft 0kts
21-Apr-18 13:08 39.853374 -104.672093 0 5439ft 0kts
21-Apr-18 13:09 39.853374 -104.672093 0 5439ft 0kts
21-Apr-18 13:10 39.853374 -104.672093 0 5439ft 0kts
21-Apr-18 13:11 39.853374 -104.672093 0 5439ft 0kts
21-Apr-18 13:12 39.853374 -104.672093 0 5439ft 0kts
21-Apr-18 13:13 39.853374 -104.672093 0 5439ft 0kts
21-Apr-18 13:14 39.853374 -104.672093 0 5439ft 0kts
21-Apr-18 13:15 39.853374 -104.672093 0 5439ft 0kts
21-Apr-18 13:16 39.853374 -104.672093 0 5439ft 0kts
21-Apr-18 13:17 39.853374 -104.672093 0 5439ft 0kts
21-Apr-18 13:18 39.853374 -104.672093 0 5439ft 0kts
21-Apr-18 13:19 39.852887 -104.672095 0 5439ft 2kts
21-Apr-18 13:20 39.852578 -104.672097 0 5439ft 0kts
21-Apr-18 13:21 39.852579 -104.672097 0 5439ft 0kts
21-Apr-18 13:22 39.852580 -104.672097 0 5439ft 0kts
21-Apr-18 13:23 39.852581 -104.672097 0 5439ft 0kts
21-Apr-18 13:24 39.852844 -104.676919 269 5439ft 17kts
21-Apr-18 13:25 39.854000 -104.682054 0 5439ft 14kts
21-Apr-18 13:26 39.859253 -104.681998 0 5439ft 21kts
21-Apr-18 13:27 39.862740 -104.682413 350 5439ft 14kts
21-Apr-18 13:28 39.864327 -104.684940 270 5439ft 11kts
21-Apr-18 13:29 39.864332 -104.685659 270 5439ft 0kts
21-Apr-18 13:30 39.865065 -104.687198 1 5439ft 20kts
21-Apr-18 13:31 39.897340 -104.687149 354 6124ft 202kts
21-Apr-18 13:32 39.926742 -104.746295 251 9232ft 243kts
21-Apr-18 13:33 39.868401 -104.812567 216 10174ft 328kts
21-Apr-18 13:34 39.793100 -104.891431 221 13218ft 361kts
21-Apr-18 13:35 39.693214 -104.926542 174 16027ft 396kts
21-Apr-18 13:36 39.586385 -104.878647 150 18684ft 418kts
21-Apr-18 13:37 39.481045 -104.807423 155 21300ft 435kts
21-Apr-18 13:38 39.363813 -104.758123 169 23566ft 454kts
21-Apr-18 13:39 39.234734 -104.748295 176 25454ft 473kts
21-Apr-18 13:40 39.101084 -104.740440 176 27112ft 489kts
21-Apr-18 13:41 38.968342 -104.781062 208 28571ft 501kts
21-Apr-18 13:42 38.841813 -104.862702 208 29902ft 514kts
21-Apr-18 13:43 38.713189 -104.943897 211 31545ft 513kts
21-Apr-18 13:44 38.588656 -105.030842 211 33246ft 508kts
21-Apr-18 13:45 38.464328 -105.116662 211 34707ft 506kts
21-Apr-18 13:46 38.340881 -105.201793 212 36042ft 504kts
21-Apr-18 13:47 38.217590 -105.286276 212 37218ft 503kts
21-Apr-18 13:48 38.094020 -105.370556 212 38235ft 504kts
21-Apr-18 13:49 37.970607 -105.454508 212 38259ft 501kts
21-Apr-18 13:50 37.868511 -105.523657 212 38264ft 500kts
21-Apr-18 13:51 37.745282 -105.606495 211 38254ft 501kts
21-Apr-18 13:52 37.612243 -105.664110 199 38234ft 508kts
21-Apr-18 13:53 37.476047 -105.713480 200 38201ft 507kts
21-Apr-18 13:54 37.340822 -105.762936 200 38180ft 506kts
21-Apr-18 13:55 37.206086 -105.812284 200 38192ft 504kts
21-Apr-18 13:56 37.071416 -105.861388 200 38206ft 502kts
21-Apr-18 13:57 36.937767 -105.909928 201 38210ft 500kts
21-Apr-18 13:58 36.804684 -105.958093 201 38213ft 498kts
21-Apr-18 13:59 36.671575 -106.006082 201 38211ft 496kts
21-Apr-18 14:00 36.539592 -106.053501 202 38208ft 494kts
21-Apr-18 14:01 36.407861 -106.100662 202 38207ft 493kts
21-Apr-18 14:02 36.275769 -106.147787 202 38205ft 492kts
21-Apr-18 14:03 36.144229 -106.194546 202 38194ft 492kts
21-Apr-18 14:04 36.012770 -106.241118 202 38196ft 492kts
21-Apr-18 14:05 35.881088 -106.287605 202 38199ft 491kts
21-Apr-18 14:06 35.750110 -106.333686 202 38195ft 489kts
21-Apr-18 14:07 35.619613 -106.379437 202 38183ft 487kts
21-Apr-18 14:08 35.489266 -106.424991 202 38169ft 484kts
21-Apr-18 14:09 35.360047 -106.469985 203 38174ft 482kts
21-Apr-18 14:10 35.231578 -106.514573 203 38178ft 479kts
21-Apr-18 14:11 35.103493 -106.558887 203 38181ft 475kts
21-Apr-18 14:12 34.976695 -106.602618 203 38180ft 473kts
21-Apr-18 14:13 34.850493 -106.645998 204 38188ft 471kts
21-Apr-18 14:14 34.724387 -106.689213 204 38196ft 469kts
21-Apr-18 14:15 34.599170 -106.732071 204 38198ft 467kts
21-Apr-18 14:16 34.474308 -106.774570 204 38197ft 466kts
21-Apr-18 14:17 34.351508 -106.821801 217 38191ft 448kts
21-Apr-18 14:18 34.260533 -106.916007 233 38187ft 426kts
21-Apr-18 14:19 34.177111 -107.017253 233 38182ft 425kts
21-Apr-18 14:20 34.093578 -107.118370 233 38181ft 423kts
21-Apr-18 14:21 34.011002 -107.218751 233 38181ft 421kts
21-Apr-18 14:22 33.929651 -107.317092 233 38175ft 408kts
21-Apr-18 14:23 33.849023 -107.414195 233 38173ft 409kts
21-Apr-18 14:24 33.768667 -107.510666 233 38169ft 409kts
21-Apr-18 14:25 33.688078 -107.607132 233 38166ft 409kts
21-Apr-18 14:26 33.607335 -107.703510 233 38164ft 408kts
21-Apr-18 14:27 33.526838 -107.799322 233 38162ft 407kts
21-Apr-18 14:28 33.446415 -107.894783 233 38161ft 407kts
21-Apr-18 14:29 33.365834 -107.990184 233 38162ft 406kts
21-Apr-18 14:30 33.286170 -108.084229 233 38163ft 400kts
21-Apr-18 14:31 33.207106 -108.177300 233 38157ft 398kts
21-Apr-18 14:32 33.128133 -108.270022 233 38154ft 396kts
21-Apr-18 14:33 33.049844 -108.361702 233 38155ft 394kts
21-Apr-18 14:34 32.972009 -108.452610 233 38153ft 391kts
21-Apr-18 14:35 32.894183 -108.543274 233 38153ft 389kts
21-Apr-18 14:36 32.816942 -108.633026 233 38147ft 389kts
21-Apr-18 14:37 32.739804 -108.722436 233 38144ft 386kts
21-Apr-18 14:38 32.662580 -108.811710 233 38139ft 386kts
21-Apr-18 14:39 32.585819 -108.900234 233 38042ft 385kts
21-Apr-18 14:40 32.509963 -108.987482 232 35711ft 379kts
21-Apr-18 14:41 32.433763 -109.075185 231 32899ft 384kts
21-Apr-18 14:42 32.353070 -109.167449 230 30418ft 418kts
21-Apr-18 14:43 32.278786 -109.266635 252 28210ft 384kts
21-Apr-18 14:44 32.257167 -109.389283 265 26620ft 388kts
21-Apr-18 14:45 32.244050 -109.513941 266 25122ft 380kts
21-Apr-18 14:46 32.231322 -109.638012 266 23646ft 378kts
21-Apr-18 14:47 32.218514 -109.760573 266 22166ft 373kts
21-Apr-18 14:48 32.205900 -109.881593 266 20683ft 371kts
21-Apr-18 14:49 32.193607 -110.002154 266 18909ft 368kts
21-Apr-18 14:50 32.181424 -110.120779 266 17114ft 360kts
21-Apr-18 14:51 32.169242 -110.236600 265 15408ft 353kts
21-Apr-18 14:52 32.159938 -110.350895 273 13913ft 341kts
21-Apr-18 14:53 32.166235 -110.460437 275 13211ft 336kts
21-Apr-18 14:54 32.146438 -110.561281 221 12523ft 327kts
21-Apr-18 14:55 32.079194 -110.622107 219 11522ft 295kts
21-Apr-18 14:56 32.017489 -110.682870 232 10664ft 274kts
21-Apr-18 14:57 31.974273 -110.751790 241 9545ft 250kts
21-Apr-18 14:58 31.988080 -110.810181 324 8450ft 183kts
21-Apr-18 14:59 32.032523 -110.847936 330 5504ft 202kts
21-Apr-18 15:00 32.072266 -110.888463 313 3656ft 164kts
21-Apr-18 15:01 32.102145 -110.923082 315 2697ft 146kts
21-Apr-18 15:02 32.115943 -110.937718 355 2651ft 12kts
21-Apr-18 15:03 32.119139 -110.937982 13 2651ft 6kts

Navigation Log

Ident Type
Flight plan parsing failed, navigation log unavailable